Terminal Aerodrome Forecast
Issued by NWS

Home | Current Version | Previous Version | Text Only | Print | Product List | Glossary On
Versions: 1 2 3 4 5 6 7 8 9 10 11 12 13 14 15 16 17 18 19 20 21
490
FTUS43 KIND 032320
TAFBMG
TAF
KBMG 032320Z 0400/0424 23004KT P6SM BKN100
     FM041200 23008KT P6SM SHRA OVC025
     FM041500 27010KT P6SM SHRA OVC015
     FM041800 32011G20KT P6SM VCSH BKN020
     FM042100 32013G23KT P6SM BKN035
      AMD LTD TO CLD WIND AND VIS 0401/0413=

USA.gov is the U.S. government's official web portal to all federal, state and local government web resources and services.